createdAt,value
2022-10-26T00:00:22.524Z,6.70
2022-10-26T00:06:25.161Z,8.77
2022-10-26T00:12:26.604Z,9.63
2022-10-26T00:18:28.286Z,8.80
2022-10-26T00:24:29.716Z,8.93
2022-10-26T00:30:31.227Z,8.07
2022-10-26T00:36:32.713Z,7.17
2022-10-26T00:42:34.171Z,9.48
2022-10-26T00:48:38.324Z,7.68
2022-10-26T00:54:40.157Z,8.20
2022-10-26T01:00:42.259Z,10.98
2022-10-26T01:06:44.788Z,8.20
2022-10-26T01:12:46.406Z,7.13
2022-10-26T01:18:53.134Z,11.18
2022-10-26T01:25:02.261Z,10.20
2022-10-26T01:31:05.891Z,10.25
2022-10-26T01:37:09.188Z,8.77
2022-10-26T01:43:12.059Z,6.45
2022-10-26T01:49:15.319Z,11.73
2022-10-26T01:55:52.264Z,8.43
2022-10-26T02:01:56.591Z,8.68
2022-10-26T02:08:16.649Z,7.53
2022-10-26T02:14:36.695Z,11.35
2022-10-26T02:20:41.585Z,12.10
2022-10-26T02:26:45.670Z,8.63
2022-10-26T02:32:50.119Z,6.97
2022-10-26T02:38:52.241Z,9.77
2022-10-26T02:44:57.771Z,7.35
2022-10-26T02:51:11.155Z,9.93
2022-10-26T02:57:15.751Z,8.43
2022-10-26T03:03:17.725Z,8.20
2022-10-26T03:09:21.116Z,9.27
2022-10-26T03:15:24.972Z,7.82
2022-10-26T03:21:26.690Z,9.80
2022-10-26T03:27:28.215Z,8.20
2022-10-26T03:33:29.725Z,8.65
2022-10-26T03:39:31.509Z,8.87
2022-10-26T03:45:32.975Z,6.97
2022-10-26T03:51:34.422Z,7.97
2022-10-26T03:57:40.567Z,8.97
2022-10-26T04:03:42.067Z,8.82
2022-10-26T04:09:43.661Z,10.13
2022-10-26T04:15:45.138Z,10.32
2022-10-26T04:21:46.570Z,11.73
2022-10-26T04:27:48.429Z,10.97
2022-10-26T04:33:50.134Z,9.25
2022-10-26T04:39:51.564Z,12.73
2022-10-26T04:45:56.475Z,8.63
2022-10-26T04:51:57.928Z,8.75
2022-10-26T04:58:01.289Z,11.00
2022-10-26T05:04:03.580Z,9.20
2022-10-26T05:10:05.639Z,8.43
2022-10-26T05:16:07.314Z,9.32
2022-10-26T05:22:08.768Z,8.38
2022-10-26T05:28:13.225Z,7.47
2022-10-26T05:34:14.735Z,7.60
2022-10-26T05:40:17.537Z,7.00
2022-10-26T05:46:19.059Z,7.80
2022-10-26T05:52:20.536Z,7.38
2022-10-26T05:58:22.130Z,7.10
2022-10-26T06:04:23.571Z,7.07
2022-10-26T06:10:25.506Z,11.07
2022-10-26T06:16:39.572Z,10.98
2022-10-26T06:22:51.563Z,10.63
2022-10-26T06:29:08.327Z,10.07
2022-10-26T06:35:14.204Z,7.85
2022-10-26T06:41:16.276Z,6.20
2022-10-26T06:47:31.248Z,7.05
2022-10-26T07:00:00.461Z,9.07
2022-10-26T07:06:01.940Z,9.30
2022-10-26T07:12:03.719Z,8.70
2022-10-26T07:18:07.086Z,8.30
2022-10-26T07:24:08.961Z,10.45
2022-10-26T07:30:10.666Z,6.30
2022-10-26T07:36:12.337Z,9.20
2022-10-26T07:42:14.669Z,8.37
2022-10-26T07:48:16.100Z,8.95
2022-10-26T07:54:17.562Z,9.10
2022-10-26T08:00:19.076Z,9.50
2022-10-26T08:06:23.772Z,6.85
2022-10-26T08:12:25.203Z,6.57
2022-10-26T08:18:27.399Z,6.82
2022-10-26T08:24:29.232Z,7.93
2022-10-26T08:30:31.468Z,6.60
2022-10-26T08:36:32.956Z,7.25
2022-10-26T08:42:40.674Z,6.93
2022-10-26T08:48:44.681Z,5.32
2022-10-26T08:54:50.943Z,5.70
2022-10-26T09:00:52.883Z,7.30
2022-10-26T09:07:13.252Z,9.57
2022-10-26T09:13:14.684Z,6.30
2022-10-26T09:19:22.560Z,7.28
2022-10-26T09:25:26.370Z,7.90
2022-10-26T09:31:28.370Z,7.43
2022-10-26T09:37:32.099Z,6.28
2022-10-26T09:43:42.738Z,6.00
2022-10-26T09:49:48.481Z,6.28
2022-10-26T09:55:52.261Z,8.32
2022-10-26T10:01:53.769Z,6.57
2022-10-26T10:08:14.101Z,7.97
2022-10-26T10:14:17.699Z,4.37
2022-10-26T10:20:24.283Z,4.45
2022-10-26T10:26:25.804Z,4.40
2022-10-26T10:32:30.308Z,4.87
2022-10-26T10:38:36.648Z,5.05
2022-10-26T10:44:38.169Z,4.47
2022-10-26T10:50:50.525Z,5.97
2022-10-26T10:56:53.334Z,9.18
2022-10-26T11:03:06.695Z,5.83
2022-10-26T11:09:11.663Z,6.60
2022-10-26T11:15:16.746Z,7.83
2022-10-26T11:21:25.215Z,5.38
2022-10-26T11:27:30.789Z,5.30
2022-10-26T11:33:42.707Z,6.70
2022-10-26T11:40:01.046Z,5.53
2022-10-26T11:46:04.682Z,5.43
2022-10-26T11:52:22.597Z,9.65
2022-10-26T11:58:25.987Z,3.75
2022-10-26T12:04:29.664Z,6.47
2022-10-26T12:10:34.995Z,5.82
2022-10-26T12:17:11.738Z,7.27
2022-10-26T12:23:19.091Z,4.60
2022-10-26T12:29:36.978Z,3.72
2022-10-26T12:35:40.218Z,4.87
2022-10-26T12:41:54.739Z,4.85
2022-10-26T12:48:10.704Z,5.87
2022-10-26T12:54:33.943Z,3.78
2022-10-26T13:00:37.840Z,7.25
2022-10-26T13:06:45.223Z,3.70
2022-10-26T13:13:05.259Z,4.22
2022-10-26T13:19:23.958Z,6.60
2022-10-26T13:25:27.636Z,4.47
2022-10-26T13:31:29.179Z,6.93
2022-10-26T13:37:32.577Z,4.40
2022-10-26T13:43:36.176Z,4.30
2022-10-26T13:49:42.430Z,7.50
2022-10-26T13:55:48.481Z,5.55
2022-10-26T14:02:05.331Z,4.53
2022-10-26T14:08:06.773Z,4.03
2022-10-26T14:14:12.679Z,5.40
2022-10-26T14:20:18.615Z,6.53
2022-10-26T14:26:20.457Z,6.75
2022-10-26T14:32:28.943Z,6.43
2022-10-26T14:38:32.356Z,4.67
2022-10-26T14:44:36.517Z,6.07
2022-10-26T14:50:38.057Z,5.17
2022-10-26T14:56:40.387Z,5.85
2022-10-26T15:02:43.543Z,7.10
2022-10-26T15:08:56.480Z,4.80
2022-10-26T15:15:14.063Z,4.85
2022-10-26T15:21:23.295Z,4.43
2022-10-26T15:27:24.927Z,5.75
2022-10-26T15:33:27.728Z,5.32
2022-10-26T15:39:29.169Z,6.67
2022-10-26T15:45:47.819Z,5.45
2022-10-26T15:51:49.332Z,6.07
2022-10-26T15:57:51.242Z,5.93
2022-10-26T16:03:53.256Z,10.70
2022-10-26T16:09:54.691Z,10.00
2022-10-26T16:15:56.169Z,6.47
2022-10-26T16:21:57.830Z,7.57
2022-10-26T16:27:59.408Z,8.35
2022-10-26T16:34:04.067Z,8.43
2022-10-26T16:40:06.935Z,8.13
2022-10-26T16:46:13.822Z,6.28
2022-10-26T16:52:16.318Z,7.37
2022-10-26T16:58:17.766Z,9.00
2022-10-26T17:04:19.325Z,10.45
2022-10-26T17:10:20.795Z,12.10
2022-10-26T17:16:23.009Z,7.57
2022-10-26T17:22:24.497Z,9.17
2022-10-26T17:28:25.935Z,8.68
2022-10-26T17:34:27.449Z,7.05
2022-10-26T17:40:28.942Z,10.50
2022-10-26T17:46:30.504Z,9.57
2022-10-26T17:52:31.978Z,10.23
2022-10-26T17:58:33.967Z,10.30
2022-10-26T18:04:35.523Z,8.63
2022-10-26T18:10:38.496Z,10.57
2022-10-26T18:16:40.138Z,10.50
2022-10-26T18:22:41.998Z,10.33
2022-10-26T18:28:44.215Z,9.95
2022-10-26T18:34:45.749Z,10.80
2022-10-26T18:40:51.574Z,11.17
2022-10-26T18:46:53.107Z,12.57
2022-10-26T18:52:54.805Z,10.90
2022-10-26T18:58:58.384Z,11.38
2022-10-26T19:04:59.879Z,10.52
2022-10-26T19:11:02.418Z,11.87
2022-10-26T19:17:05.422Z,11.07
2022-10-26T19:23:07.430Z,11.67
2022-10-26T19:29:12.193Z,13.85
2022-10-26T19:35:13.671Z,13.80
2022-10-26T19:41:15.547Z,11.13
2022-10-26T19:47:17.034Z,13.68
2022-10-26T19:53:18.624Z,10.63
2022-10-26T19:59:20.432Z,14.77
2022-10-26T20:05:21.930Z,11.45
2022-10-26T20:11:23.388Z,15.03
2022-10-26T20:17:28.312Z,11.07
2022-10-26T20:23:30.127Z,9.23
2022-10-26T20:29:31.648Z,10.50
2022-10-26T20:35:33.239Z,10.75
2022-10-26T20:41:40.514Z,11.17
2022-10-26T20:47:42.263Z,11.20
2022-10-26T20:53:47.958Z,13.03
2022-10-26T20:59:51.760Z,10.40
2022-10-26T21:05:53.374Z,16.65
2022-10-26T21:11:57.679Z,10.90
2022-10-26T21:17:59.116Z,11.73
2022-10-26T21:24:01.019Z,12.80
2022-10-26T21:30:02.551Z,13.50
2022-10-26T21:36:06.159Z,15.75
2022-10-26T21:42:07.603Z,13.03
2022-10-26T21:48:09.102Z,13.82
2022-10-26T21:54:10.543Z,12.93
2022-10-26T22:00:12.334Z,11.10
2022-10-26T22:12:19.186Z,12.37
2022-10-26T22:18:20.603Z,10.93
2022-10-26T22:24:22.050Z,13.80
2022-10-26T22:30:23.547Z,10.10
2022-10-26T22:36:25.564Z,10.68
2022-10-26T22:42:27.007Z,11.93
2022-10-26T22:48:28.527Z,13.40
2022-10-26T22:54:30.011Z,10.47
2022-10-26T23:00:31.447Z,10.30
2022-10-26T23:06:32.951Z,9.07
2022-10-26T23:12:34.405Z,9.97
2022-10-26T23:18:35.883Z,10.20
2022-10-26T23:24:37.374Z,11.50
2022-10-26T23:30:38.877Z,9.23
2022-10-26T23:36:40.306Z,13.75
2022-10-26T23:42:41.768Z,12.27
2022-10-26T23:48:43.205Z,11.80
2022-10-26T23:54:44.690Z,10.60
